Time;durP1;ratioP1;P1;durP2;ratioP2;P2;SDS_P1;SDS_P2;PMS_P1;PMS_P2;Temp;Humidity;BMP_temperature;BMP_pressure;BME280_temperature;BME280_humidity;BME280_pressure;Samples;Min_cycle;Max_cycle;Signal;HPM_P1;HPM_P2
2023/01/17 00:02:17;;;;;;;;;;;4.50;1.00;;;;;;5034638;28;19913;-83
2023/01/17 00:10:58;;;;;;;;;;;4.50;1.00;;;;;;5036340;28;19916;-84
2023/01/17 00:13:28;;;;;;;;;;;4.60;1.00;;;;;;5042953;28;19974;-83
2023/01/17 00:15:58;;;;;;;;;;;4.60;1.00;;;;;;5015104;28;19925;-83
2023/01/17 00:18:34;;;;;;;;;;;4.60;1.00;;;;;;5023716;28;19913;-77
2023/01/17 01:33:46;;;;;;;;;;;4.50;1.00;;;;;;5030001;28;19970;-83
2023/01/17 01:36:22;;;;;;;;;;;4.40;1.00;;;;;;5004970;28;20368;-84
2023/01/17 01:38:53;;;;;;;;;;;4.40;1.00;;;;;;5032566;28;20361;-83
2023/01/17 01:41:28;;;;;;;;;;;4.40;1.00;;;;;;5033788;28;19916;-83
2023/01/17 01:43:58;;;;;;;;;;;4.30;1.00;;;;;;5032881;28;19917;-83
2023/01/17 01:46:58;;;;;;;;;;;4.10;1.00;;;;;;5032607;28;19917;-82
2023/01/17 01:49:29;;;;;;;;;;;4.00;1.00;;;;;;5010218;28;19958;-77
2023/01/17 01:52:00;;;;;;;;;;;4.00;1.00;;;;;;5033323;28;19956;-77
2023/01/17 01:54:54;;;;;;;;;;;4.00;1.00;;;;;;5030485;28;20004;-77
2023/01/17 01:57:33;;;;;;;;;;;3.90;1.00;;;;;;5023004;28;20351;-77
2023/01/17 02:00:30;;;;;;;;;;;3.80;1.00;;;;;;5022979;28;19913;-76
2023/01/17 02:03:01;;;;;;;;;;;3.90;1.00;;;;;;4940560;29;20320;-76
2023/01/17 02:05:28;;;;;;;;;;;3.80;1.00;;;;;;4933293;29;20043;-82
2023/01/17 02:08:28;;;;;;;;;;;3.80;1.00;;;;;;4920667;29;20338;-83
2023/01/17 02:10:58;;;;;;;;;;;3.70;1.00;;;;;;4936317;29;19925;-83
2023/01/17 02:13:30;;;;;;;;;;;3.70;1.00;;;;;;4936737;29;19914;-82
2023/01/17 02:16:22;;;;;;;;;;;3.60;1.00;;;;;;4937570;29;19911;-82
2023/01/17 02:18:48;;;;;;;;;;;3.60;1.00;;;;;;4940112;29;19914;-81
2023/01/17 02:21:21;;;;;;;;;;;3.60;1.00;;;;;;4936918;29;19925;-83
2023/01/17 02:23:58;;;;;;;;;;;3.60;1.00;;;;;;4937270;29;19918;-83
2023/01/17 02:26:28;;;;;;;;;;;3.50;1.00;;;;;;4937399;29;20382;-83
2023/01/17 02:29:01;;;;;;;;;;;3.60;1.00;;;;;;4937320;29;20387;-83
2023/01/17 02:31:59;;;;;;;;;;;3.60;1.00;;;;;;4932397;29;19915;-83
2023/01/17 02:34:28;;;;;;;;;;;3.50;1.00;;;;;;4928259;29;19994;-83
2023/01/17 02:37:04;;;;;;;;;;;3.50;1.00;;;;;;4935217;29;19923;-83
2023/01/17 02:39:58;;;;;;;;;;;3.50;1.00;;;;;;4989880;28;19913;-83
2023/01/17 02:42:30;;;;;;;;;;;3.50;1.00;;;;;;5027510;28;19952;-83
2023/01/17 02:44:58;;;;;;;;;;;3.50;1.00;;;;;;5018555;28;19956;-83
2023/01/17 02:47:28;;;;;;;;;;;3.50;1.00;;;;;;5027831;28;19915;-83
2023/01/17 02:50:01;;;;;;;;;;;3.60;1.00;;;;;;5032239;28;19921;-83
2023/01/17 02:52:58;;;;;;;;;;;3.60;1.00;;;;;;5039940;28;19913;-81
2023/01/17 02:55:52;;;;;;;;;;;3.70;1.00;;;;;;5024780;28;19923;-81
2023/01/17 02:58:28;;;;;;;;;;;3.70;1.00;;;;;;5028061;28;19914;-81
2023/01/17 03:01:19;;;;;;;;;;;3.70;1.00;;;;;;5035666;28;19917;-81
2023/01/17 03:04:16;;;;;;;;;;;3.70;1.00;;;;;;4998807;28;19917;-81
2023/01/17 03:06:53;;;;;;;;;;;3.80;1.00;;;;;;5024537;28;19913;-74
2023/01/17 03:09:29;;;;;;;;;;;3.80;1.00;;;;;;5034536;28;19917;-74
2023/01/17 03:11:58;;;;;;;;;;;3.70;1.00;;;;;;5016774;28;19968;-75
2023/01/17 03:14:24;;;;;;;;;;;3.80;1.00;;;;;;5035275;28;19909;-75
2023/01/17 03:16:52;;;;;;;;;;;3.70;1.00;;;;;;5017501;28;20404;-74
2023/01/17 03:19:18;;;;;;;;;;;3.80;1.00;;;;;;5030581;28;20008;-74
2023/01/17 03:21:48;;;;;;;;;;;3.70;1.00;;;;;;5035032;28;20063;-81
2023/01/17 03:24:13;;;;;;;;;;;3.80;1.00;;;;;;5035430;28;19952;-81
2023/01/17 03:26:53;;;;;;;;;;;3.80;1.00;;;;;;5030219;28;19914;-80
2023/01/17 03:29:40;;;;;;;;;;;3.80;1.00;;;;;;5015722;28;19936;-81
2023/01/17 03:32:16;;;;;;;;;;;3.80;1.00;;;;;;5033008;28;19920;-80
2023/01/17 03:34:58;;;;;;;;;;;3.80;1.00;;;;;;5035268;28;19920;-75
2023/01/17 03:37:28;;;;;;;;;;;3.70;1.00;;;;;;5034309;28;19975;-76
2023/01/17 03:39:54;;;;;;;;;;;3.70;1.00;;;;;;5017572;28;19917;-76
2023/01/17 03:42:19;;;;;;;;;;;3.70;1.00;;;;;;5030274;28;19940;-76
2023/01/17 03:44:45;;;;;;;;;;;3.70;1.00;;;;;;5034402;28;20261;-76
2023/01/17 03:47:11;;;;;;;;;;;3.70;1.00;;;;;;5012902;28;20265;-77
2023/01/17 03:49:40;;;;;;;;;;;3.70;1.00;;;;;;5017490;28;19956;-76
2023/01/17 03:52:06;;;;;;;;;;;3.60;1.00;;;;;;5034363;28;19914;-76
2023/01/17 03:54:34;;;;;;;;;;;3.60;1.00;;;;;;5016852;28;19920;-77
2023/01/17 03:57:00;;;;;;;;;;;3.60;1.00;;;;;;5034937;28;19968;-77
2023/01/17 03:59:28;;;;;;;;;;;3.60;1.00;;;;;;5035302;28;19910;-77
2023/01/17 04:01:58;;;;;;;;;;;3.50;1.00;;;;;;5016763;28;19924;-77
2023/01/17 04:04:28;;;;;;;;;;;3.50;1.00;;;;;;5028892;28;19978;-76
2023/01/17 04:06:54;;;;;;;;;;;3.50;1.00;;;;;;5030164;28;19929;-77
2023/01/17 04:09:19;;;;;;;;;;;3.50;1.00;;;;;;5026488;28;19984;-76
2023/01/17 04:11:49;;;;;;;;;;;3.50;1.00;;;;;;5032449;28;19909;-76
2023/01/17 04:14:16;;;;;;;;;;;3.40;1.00;;;;;;5036647;28;19913;-76
2023/01/17 04:16:46;;;;;;;;;;;3.40;1.00;;;;;;5034711;28;19909;-76
2023/01/17 04:19:12;;;;;;;;;;;3.40;1.00;;;;;;5016256;28;19914;-76
2023/01/17 04:21:46;;;;;;;;;;;3.50;1.00;;;;;;5007309;28;19920;-82
2023/01/17 04:24:12;;;;;;;;;;;3.50;1.00;;;;;;5033968;28;19936;-82
2023/01/17 04:26:40;;;;;;;;;;;3.50;1.00;;;;;;5034635;28;19909;-83
2023/01/17 04:29:06;;;;;;;;;;;3.50;1.00;;;;;;5017054;28;19913;-83
2023/01/17 04:31:58;;;;;;;;;;;3.50;1.00;;;;;;5034430;28;19916;-82
2023/01/17 04:34:28;;;;;;;;;;;3.40;1.00;;;;;;5025739;28;19917;-83
2023/01/17 04:36:58;;;;;;;;;;;3.40;1.00;;;;;;5010554;28;19913;-82
2023/01/17 04:39:28;;;;;;;;;;;3.30;1.00;;;;;;5006473;28;19920;-82
2023/01/17 04:41:58;;;;;;;;;;;3.20;1.00;;;;;;5016242;28;19920;-82
2023/01/17 04:44:28;;;;;;;;;;;3.20;1.00;;;;;;5034320;28;19917;-82
2023/01/17 04:46:54;;;;;;;;;;;3.20;1.00;;;;;;5003710;28;20318;-82
2023/01/17 04:49:28;;;;;;;;;;;3.10;1.00;;;;;;5034254;28;19939;-82
2023/01/17 04:51:58;;;;;;;;;;;3.20;1.00;;;;;;5034674;28;20012;-78
2023/01/17 04:54:24;;;;;;;;;;;3.20;1.00;;;;;;5012128;28;19964;-76
2023/01/17 04:56:52;;;;;;;;;;;3.20;1.00;;;;;;5034003;28;19913;-92
2023/01/17 04:59:22;;;;;;;;;;;3.20;1.00;;;;;;5013929;28;19909;-88
2023/01/17 05:08:16;;;;;;;;;;;2.90;1.00;;;;;;5033885;28;19966;-89
2023/01/17 05:10:44;;;;;;;;;;;2.70;1.00;;;;;;5017054;28;20012;-89
2023/01/17 05:13:17;;;;;;;;;;;2.60;1.00;;;;;;5016957;28;19967;-89
2023/01/17 05:16:04;;;;;;;;;;;2.60;1.00;;;;;;5017132;28;19913;-89
2023/01/17 05:31:04;;;;;;;;;;;2.60;1.00;;;;;;5034250;28;20276;-89
2023/01/17 05:33:58;;;;;;;;;;;2.60;1.00;;;;;;5029907;28;19913;-89
2023/01/17 05:36:46;;;;;;;;;;;2.60;1.00;;;;;;5017810;28;20431;-89
2023/01/17 05:48:40;;;;;;;;;;;2.70;1.00;;;;;;5037796;28;19917;-89
2023/01/17 05:57:12;;;;;;;;;;;2.80;1.00;;;;;;5026826;28;19918;-89
2023/01/17 05:59:52;;;;;;;;;;;2.80;1.00;;;;;;5014717;28;19925;-89
2023/01/17 06:02:22;;;;;;;;;;;2.80;1.00;;;;;;5017387;28;19935;-89
2023/01/17 06:07:51;;;;;;;;;;;2.90;1.00;;;;;;5037376;28;19999;-89
2023/01/17 06:19:46;;;;;;;;;;;3.00;1.00;;;;;;5035601;28;19999;-87
2023/01/17 06:25:16;;;;;;;;;;;3.00;1.00;;;;;;5031906;28;20031;-87
2023/01/17 06:28:16;;;;;;;;;;;3.00;1.00;;;;;;5023042;28;20000;-89
2023/01/17 06:37:23;;;;;;;;;;;3.00;1.00;;;;;;5032713;28;20284;-88
2023/01/17 06:40:22;;;;;;;;;;;3.00;1.00;;;;;;5015753;28;19917;-88
2023/01/17 06:42:48;;;;;;;;;;;2.90;1.00;;;;;;5027124;28;19913;-75
2023/01/17 06:45:29;;;;;;;;;;;3.00;1.00;;;;;;5034763;28;19943;-76
2023/01/17 06:47:55;;;;;;;;;;;2.90;1.00;;;;;;5035534;28;20768;-76
2023/01/17 06:50:20;;;;;;;;;;;3.00;1.00;;;;;;5037701;28;19913;-76
2023/01/17 06:52:54;;;;;;;;;;;3.00;1.00;;;;;;5036263;28;19931;-77
2023/01/17 06:55:19;;;;;;;;;;;3.10;1.00;;;;;;5036035;28;20352;-77
2023/01/17 06:57:47;;;;;;;;;;;3.10;1.00;;;;;;5032883;28;19915;-76
2023/01/17 07:00:22;;;;;;;;;;;3.10;1.00;;;;;;5035844;28;20463;-77
2023/01/17 07:02:52;;;;;;;;;;;3.10;1.00;;;;;;5017647;28;20275;-77
2023/01/17 07:05:18;;;;;;;;;;;3.20;1.00;;;;;;5017170;28;20354;-78
2023/01/17 07:07:46;;;;;;;;;;;3.10;1.00;;;;;;5025396;28;20004;-79
2023/01/17 07:10:16;;;;;;;;;;;3.20;1.00;;;;;;5035203;28;19917;-79
2023/01/17 07:12:59;;;;;;;;;;;3.10;1.00;;;;;;5035487;28;20346;-79
2023/01/17 07:15:28;;;;;;;;;;;3.10;1.00;;;;;;5017854;28;19913;-79
2023/01/17 07:18:05;;;;;;;;;;;3.10;1.00;;;;;;5035761;28;19913;-79
2023/01/17 07:20:34;;;;;;;;;;;3.00;1.00;;;;;;5016160;28;19914;-76
2023/01/17 07:23:00;;;;;;;;;;;3.00;1.00;;;;;;5027862;28;20009;-76
2023/01/17 07:25:28;;;;;;;;;;;3.00;1.00;;;;;;5029211;28;20007;-77
2023/01/17 07:28:04;;;;;;;;;;;3.20;1.00;;;;;;5034085;28;19923;-77
2023/01/17 07:30:35;;;;;;;;;;;3.00;1.00;;;;;;5053497;28;19917;-77
2023/01/17 07:33:16;;;;;;;;;;;2.90;1.00;;;;;;5041095;28;19956;-76
2023/01/17 07:35:52;;;;;;;;;;;2.80;1.00;;;;;;5033913;28;19916;-76
2023/01/17 07:38:22;;;;;;;;;;;2.80;1.00;;;;;;5036026;28;19992;-84
2023/01/17 07:40:56;;;;;;;;;;;2.70;1.00;;;;;;5034607;28;19948;-89
2023/01/17 07:43:22;;;;;;;;;;;2.60;1.00;;;;;;5032799;28;20006;-82
2023/01/17 07:46:05;;;;;;;;;;;2.60;1.00;;;;;;5032734;28;20311;-82
2023/01/17 07:51:46;;;;;;;;;;;2.40;1.00;;;;;;5042363;28;21493;-82
2023/01/17 07:54:16;;;;;;;;;;;2.40;1.00;;;;;;5035287;28;19909;-83
2023/01/17 07:56:46;;;;;;;;;;;2.20;1.00;;;;;;5037394;28;19913;-83
2023/01/17 07:59:17;;;;;;;;;;;2.10;1.00;;;;;;5017030;28;19911;-83
2023/01/17 08:01:46;;;;;;;;;;;2.10;1.00;;;;;;5016606;28;19909;-82
2023/01/17 08:04:16;;;;;;;;;;;2.00;1.00;;;;;;5017079;28;19962;-83
2023/01/17 08:06:59;;;;;;;;;;;2.00;1.00;;;;;;5016775;28;19955;-83
2023/01/17 08:09:28;;;;;;;;;;;2.00;1.00;;;;;;5032090;28;19918;-79
2023/01/17 08:12:04;;;;;;;;;;;2.00;1.00;;;;;;5034503;28;19959;-76
2023/01/17 08:14:40;;;;;;;;;;;2.00;1.00;;;;;;5034764;28;19931;-76
2023/01/17 08:17:28;;;;;;;;;;;2.00;1.00;;;;;;5022037;28;19913;-77
2023/01/17 08:20:16;;;;;;;;;;;2.00;1.00;;;;;;5035034;28;20042;-77
2023/01/17 08:22:46;;;;;;;;;;;2.00;1.00;;;;;;5026890;28;20341;-76
2023/01/17 08:25:16;;;;;;;;;;;1.90;1.00;;;;;;5031375;28;19914;-76
2023/01/17 08:27:59;;;;;;;;;;;1.90;1.00;;;;;;5033356;28;19950;-76
2023/01/17 08:30:25;;;;;;;;;;;1.80;1.00;;;;;;5015568;28;20008;-77
2023/01/17 08:32:50;;;;;;;;;;;1.80;1.00;;;;;;5033726;28;20016;-76
2023/01/17 08:35:16;;;;;;;;;;;1.90;1.00;;;;;;5034363;28;20690;-77
2023/01/17 08:37:41;;;;;;;;;;;2.00;1.00;;;;;;5033784;28;19909;-77
2023/01/17 08:46:17;;;;;;;;;;;2.00;1.00;;;;;;5034424;28;19917;-83
2023/01/17 08:48:46;;;;;;;;;;;2.10;1.00;;;;;;5034493;28;19909;-83
2023/01/17 08:51:16;;;;;;;;;;;2.20;1.00;;;;;;5034199;28;19912;-83
2023/01/17 08:53:53;;;;;;;;;;;2.00;1.00;;;;;;5034597;28;19909;-77
2023/01/17 08:56:34;;;;;;;;;;;2.00;1.00;;;;;;5034154;28;19999;-78
2023/01/17 08:59:04;;;;;;;;;;;1.90;1.00;;;;;;5033900;28;19916;-77
2023/01/17 09:01:46;;;;;;;;;;;1.90;1.00;;;;;;5014616;28;19914;-77
2023/01/17 09:04:28;;;;;;;;;;;2.00;1.00;;;;;;5013924;28;19913;-77
2023/01/17 09:06:58;;;;;;;;;;;2.10;1.00;;;;;;5013929;28;19948;-78
2023/01/17 09:09:28;;;;;;;;;;;2.20;1.00;;;;;;5032709;28;19967;-83
2023/01/17 09:12:28;;;;;;;;;;;2.40;1.00;;;;;;5033618;28;19921;-83
2023/01/17 09:15:05;;;;;;;;;;;2.50;1.00;;;;;;5033825;28;20043;-83
2023/01/17 09:17:35;;;;;;;;;;;2.60;1.00;;;;;;5033978;28;19964;-83
2023/01/17 09:20:22;;;;;;;;;;;2.70;1.00;;;;;;5033908;28;19917;-83
2023/01/17 09:23:00;;;;;;;;;;;2.80;1.00;;;;;;5013001;28;19920;-83
2023/01/17 09:25:28;;;;;;;;;;;3.00;1.00;;;;;;5015557;28;19939;-77
2023/01/17 09:28:10;;;;;;;;;;;3.20;1.00;;;;;;5044210;28;19917;-77
2023/01/17 09:30:46;;;;;;;;;;;3.20;1.00;;;;;;5043644;28;19959;-77
2023/01/17 09:33:17;;;;;;;;;;;3.30;1.00;;;;;;5033133;28;19999;-77
2023/01/17 09:35:46;;;;;;;;;;;3.30;1.00;;;;;;5025078;28;19909;-77
2023/01/17 09:38:16;;;;;;;;;;;3.40;1.00;;;;;;5015934;28;19960;-78
2023/01/17 09:40:52;;;;;;;;;;;3.50;1.00;;;;;;5034122;28;19909;-83
2023/01/17 09:43:22;;;;;;;;;;;3.60;1.00;;;;;;5033592;28;19948;-83
2023/01/17 09:46:08;;;;;;;;;;;3.80;1.00;;;;;;5015853;28;19909;-83
2023/01/17 09:48:42;;;;;;;;;;;3.90;1.00;;;;;;5022305;28;20373;-84
2023/01/17 09:54:21;;;;;;;;;;;3.90;1.00;;;;;;5033495;28;19920;-79
2023/01/17 09:56:51;;;;;;;;;;;4.00;1.00;;;;;;5033290;28;19909;-78
2023/01/17 09:59:17;;;;;;;;;;;4.10;1.00;;;;;;5033612;28;19909;-77
2023/01/17 10:02:02;;;;;;;;;;;4.30;1.00;;;;;;5033713;28;19936;-77
2023/01/17 10:04:44;;;;;;;;;;;4.30;1.00;;;;;;5033378;28;19913;-77
2023/01/17 10:07:18;;;;;;;;;;;4.30;1.00;;;;;;5033297;28;19949;-77
2023/01/17 10:10:04;;;;;;;;;;;4.40;1.00;;;;;;5033796;28;19995;-83
2023/01/17 10:12:41;;;;;;;;;;;4.50;1.00;;;;;;5015764;28;19959;-83
2023/01/17 10:15:34;;;;;;;;;;;4.40;1.00;;;;;;5023732;28;19909;-83
2023/01/17 10:18:03;;;;;;;;;;;4.40;1.00;;;;;;5015190;28;19917;-84
2023/01/17 10:20:46;;;;;;;;;;;4.40;1.00;;;;;;5017626;28;19991;-83
2023/01/17 10:23:38;;;;;;;;;;;4.50;1.00;;;;;;5031700;28;19917;-83
2023/01/17 10:26:16;;;;;;;;;;;4.50;1.00;;;;;;5030606;28;19928;-79
2023/01/17 10:29:10;;;;;;;;;;;4.70;1.00;;;;;;5054698;28;19913;-80
2023/01/17 10:31:42;;;;;;;;;;;4.90;1.00;;;;;;5043758;28;19913;-79
2023/01/17 10:34:34;;;;;;;;;;;4.90;1.00;;;;;;5023455;28;19909;-79
2023/01/17 10:37:22;;;;;;;;;;;4.90;1.00;;;;;;5018427;28;19935;-77
2023/01/17 10:40:25;;;;;;;;;;;4.90;1.00;;;;;;5037117;28;19919;-83
2023/01/17 10:43:16;;;;;;;;;;;4.90;1.00;;;;;;4940260;29;20306;-83
2023/01/17 10:46:04;;;;;;;;;;;5.00;1.00;;;;;;4956465;29;19914;-82
2023/01/17 10:48:49;;;;;;;;;;;5.20;1.00;;;;;;4955926;29;19911;-81
2023/01/17 10:51:22;;;;;;;;;;;5.50;1.00;;;;;;4939923;29;19914;-81
2023/01/17 10:57:12;;;;;;;;;;;5.60;1.00;;;;;;4955845;29;19943;-75
2023/01/17 10:59:40;;;;;;;;;;;5.60;1.00;;;;;;4956042;29;19910;-75
2023/01/17 11:02:27;;;;;;;;;;;5.80;1.00;;;;;;4955902;28;20312;-75
2023/01/17 11:05:01;;;;;;;;;;;6.00;1.00;;;;;;4955938;29;20358;-75
2023/01/17 11:07:29;;;;;;;;;;;6.30;1.00;;;;;;4954486;28;19911;-74
2023/01/17 11:09:59;;;;;;;;;;;6.50;1.00;;;;;;4954822;28;19926;-75
2023/01/17 11:15:27;;;;;;;;;;;6.90;1.00;;;;;;4946517;28;19922;-84
2023/01/17 11:27:38;;;;;;;;;;;7.10;1.00;;;;;;5029296;28;20027;-83
2023/01/17 11:39:17;;;;;;;;;;;7.70;1.00;;;;;;4930581;29;19918;-85
2023/01/17 11:41:44;;;;;;;;;;;7.90;1.00;;;;;;4930024;29;19911;-84
2023/01/17 11:44:35;;;;;;;;;;;8.10;1.00;;;;;;4936403;29;20002;-85
2023/01/17 11:50:20;;;;;;;;;;;8.10;1.00;;;;;;4922300;29;20461;-84
2023/01/17 11:53:22;;;;;;;;;;;8.00;1.00;;;;;;4954586;29;20415;-85
2023/01/17 11:56:10;;;;;;;;;;;7.60;1.00;;;;;;4936050;29;19914;-84
2023/01/17 12:04:46;;;;;;;;;;;7.90;1.00;;;;;;4941081;28;20318;-84
2023/01/17 12:10:34;;;;;;;;;;;7.90;1.00;;;;;;5024467;28;20403;-84
2023/01/17 12:19:16;;;;;;;;;;;7.00;1.00;;;;;;5015316;28;19995;-85
2023/01/17 12:22:05;;;;;;;;;;;6.80;1.00;;;;;;5017262;28;19975;-84
2023/01/17 12:24:34;;;;;;;;;;;6.70;1.00;;;;;;5025372;28;19913;-84
2023/01/17 12:27:11;;;;;;;;;;;6.60;1.00;;;;;;5026583;28;19948;-81
2023/01/17 12:29:41;;;;;;;;;;;6.60;1.00;;;;;;5020648;28;19916;-80
2023/01/17 12:32:17;;;;;;;;;;;6.50;1.00;;;;;;5034307;28;19910;-81
2023/01/17 12:35:07;;;;;;;;;;;6.40;1.00;;;;;;5033688;28;20277;-79
2023/01/17 12:37:39;;;;;;;;;;;6.30;1.00;;;;;;5009767;28;20316;-78
2023/01/17 12:40:22;;;;;;;;;;;6.20;1.00;;;;;;5016230;28;20375;-79
2023/01/17 12:46:02;;;;;;;;;;;6.00;1.00;;;;;;5034112;28;19956;-79
2023/01/17 12:48:29;;;;;;;;;;;5.90;1.00;;;;;;5034193;28;19917;-79
2023/01/17 12:51:05;;;;;;;;;;;5.90;1.00;;;;;;5016572;28;19916;-79
2023/01/17 12:53:40;;;;;;;;;;;5.90;1.00;;;;;;5034110;28;20422;-79
2023/01/17 12:56:17;;;;;;;;;;;5.90;1.00;;;;;;5033908;28;20403;-79
2023/01/17 12:58:55;;;;;;;;;;;5.90;1.00;;;;;;5030270;28;19913;-75
2023/01/17 13:01:41;;;;;;;;;;;5.90;1.00;;;;;;5029272;28;19960;-75
2023/01/17 13:04:17;;;;;;;;;;;5.80;1.00;;;;;;5030152;28;20017;-75
2023/01/17 13:06:59;;;;;;;;;;;5.80;1.00;;;;;;5019966;28;19971;-75
2023/01/17 13:09:43;;;;;;;;;;;5.80;1.00;;;;;;5033861;28;20004;-75
2023/01/17 13:12:11;;;;;;;;;;;5.80;1.00;;;;;;5033587;28;19923;-75
2023/01/17 13:17:49;;;;;;;;;;;5.80;1.00;;;;;;5033975;28;19916;-74
2023/01/17 13:20:25;;;;;;;;;;;5.80;1.00;;;;;;5034062;28;19917;-75
2023/01/17 13:22:55;;;;;;;;;;;5.80;1.00;;;;;;5016362;28;20241;-74
2023/01/17 13:25:29;;;;;;;;;;;5.80;1.00;;;;;;5033798;28;19917;-75
2023/01/17 13:28:01;;;;;;;;;;;5.80;1.00;;;;;;5028475;28;19917;-75
2023/01/17 13:30:35;;;;;;;;;;;5.80;1.00;;;;;;5033388;28;19909;-74
2023/01/17 13:33:06;;;;;;;;;;;5.80;1.00;;;;;;5033598;28;19920;-74
2023/01/17 13:35:41;;;;;;;;;;;5.90;1.00;;;;;;5033139;28;19913;-74
2023/01/17 13:38:17;;;;;;;;;;;6.00;1.00;;;;;;5033486;28;19996;-75
2023/01/17 13:40:46;;;;;;;;;;;6.00;1.00;;;;;;5021772;28;20389;-75
2023/01/17 13:43:18;;;;;;;;;;;6.10;1.00;;;;;;5029270;28;19936;-75
2023/01/17 13:46:02;;;;;;;;;;;6.20;1.00;;;;;;5036485;28;19970;-75
2023/01/17 13:48:30;;;;;;;;;;;6.30;1.00;;;;;;5029483;28;19917;-74
2023/01/17 13:51:01;;;;;;;;;;;6.30;1.00;;;;;;5033610;28;19920;-75
2023/01/17 13:53:35;;;;;;;;;;;6.40;1.00;;;;;;5033144;28;19909;-75
2023/01/17 13:56:11;;;;;;;;;;;6.40;1.00;;;;;;5029639;28;19920;-81
2023/01/17 14:01:53;;;;;;;;;;;6.50;1.00;;;;;;5032351;28;19955;-92
2023/01/17 14:04:18;;;;;;;;;;;6.40;1.00;;;;;;5030697;28;19919;-85
2023/01/17 14:07:10;;;;;;;;;;;6.50;1.00;;;;;;5037630;28;20003;-86
2023/01/17 14:09:43;;;;;;;;;;;6.50;1.00;;;;;;5038869;28;19913;-86
2023/01/17 14:12:34;;;;;;;;;;;6.50;1.00;;;;;;5037657;28;19917;-86
2023/01/17 14:15:00;;;;;;;;;;;6.50;1.00;;;;;;5021708;28;19917;-75
2023/01/17 14:17:45;;;;;;;;;;;6.60;1.00;;;;;;5034915;28;19913;-75
2023/01/17 14:20:17;;;;;;;;;;;6.70;1.00;;;;;;5036304;28;19913;-76
2023/01/17 14:22:48;;;;;;;;;;;6.70;1.00;;;;;;5032970;28;20551;-76
2023/01/17 14:25:19;;;;;;;;;;;6.80;1.00;;;;;;5036407;28;19944;-75
2023/01/17 14:27:59;;;;;;;;;;;6.80;1.00;;;;;;5036240;28;19923;-76
2023/01/17 14:30:54;;;;;;;;;;;6.80;1.00;;;;;;5013966;28;20003;-78
2023/01/17 14:33:38;;;;;;;;;;;6.80;1.00;;;;;;5035948;28;19913;-77
2023/01/17 14:36:18;;;;;;;;;;;6.80;1.00;;;;;;5018591;28;19917;-78
2023/01/17 14:39:04;;;;;;;;;;;6.70;1.00;;;;;;5018553;28;19916;-78
2023/01/17 14:41:53;;;;;;;;;;;6.60;1.00;;;;;;5032315;28;19913;-77
2023/01/17 14:44:36;;;;;;;;;;;6.60;1.00;;;;;;5036089;28;19913;-80
2023/01/17 14:56:24;;;;;;;;;;;6.20;1.00;;;;;;5036554;28;19916;-84
2023/01/17 14:59:10;;;;;;;;;;;6.10;1.00;;;;;;5018849;28;20012;-78
2023/01/17 15:02:07;;;;;;;;;;;6.00;1.00;;;;;;5035699;28;20412;-78
2023/01/17 15:04:38;;;;;;;;;;;5.90;1.00;;;;;;4932516;29;20336;-77
2023/01/17 15:10:13;;;;;;;;;;;5.70;1.00;;;;;;4955584;29;19917;-76
2023/01/17 15:12:45;;;;;;;;;;;5.60;1.00;;;;;;4955520;28;19922;-77
2023/01/17 15:15:37;;;;;;;;;;;5.50;1.00;;;;;;4955749;29;19916;-76
2023/01/17 15:18:11;;;;;;;;;;;5.40;1.00;;;;;;4944008;29;20275;-76
2023/01/17 15:20:59;;;;;;;;;;;5.20;1.00;;;;;;4955194;28;20325;-76
2023/01/17 15:23:28;;;;;;;;;;;5.10;1.00;;;;;;4939324;29;20456;-77
2023/01/17 15:25:55;;;;;;;;;;;5.00;1.00;;;;;;4955329;29;19961;-77
2023/01/17 15:31:42;;;;;;;;;;;4.70;1.00;;;;;;4947143;29;20419;-83
2023/01/17 15:43:22;;;;;;;;;;;4.10;1.00;;;;;;5032836;28;19919;-85
2023/01/17 15:46:05;;;;;;;;;;;4.00;1.00;;;;;;5021512;28;19921;-86
2023/01/17 15:48:42;;;;;;;;;;;3.80;1.00;;;;;;5017501;28;19962;-85
2023/01/17 15:51:11;;;;;;;;;;;3.70;1.00;;;;;;5035324;28;20318;-88
2023/01/17 15:53:59;;;;;;;;;;;3.60;1.00;;;;;;5017250;28;19924;-86
2023/01/17 15:56:30;;;;;;;;;;;3.40;1.00;;;;;;5017461;28;19964;-83
2023/01/17 15:59:17;;;;;;;;;;;3.30;1.00;;;;;;5016981;28;19913;-76
2023/01/17 16:01:50;;;;;;;;;;;3.20;1.00;;;;;;5009058;28;19913;-83
2023/01/17 16:04:53;;;;;;;;;;;3.10;1.00;;;;;;5028242;28;20346;-86
2023/01/17 16:16:53;;;;;;;;;;;2.70;1.00;;;;;;5032082;28;19936;-82
2023/01/17 16:19:20;;;;;;;;;;;2.40;1.00;;;;;;5017386;28;19963;-83
2023/01/17 16:22:11;;;;;;;;;;;2.40;1.00;;;;;;5017173;28;19979;-83
2023/01/17 16:27:53;;;;;;;;;;;2.30;1.00;;;;;;5022779;28;19967;-83
2023/01/17 16:30:47;;;;;;;;;;;2.30;1.00;;;;;;5035068;28;19948;-78
2023/01/17 16:33:29;;;;;;;;;;;2.30;1.00;;;;;;5034227;28;19915;-79
2023/01/17 16:38:57;;;;;;;;;;;2.10;1.00;;;;;;5020389;28;20287;-81
2023/01/17 16:41:23;;;;;;;;;;;2.00;1.00;;;;;;5009677;28;19913;-85
2023/01/17 16:46:53;;;;;;;;;;;1.90;1.00;;;;;;5028810;28;19916;-82
2023/01/17 16:52:35;;;;;;;;;;;1.80;1.00;;;;;;5034114;28;19955;-83
2023/01/17 16:58:03;;;;;;;;;;;1.70;1.00;;;;;;5032803;28;19920;-82
2023/01/17 17:03:35;;;;;;;;;;;1.60;1.00;;;;;;5034236;28;19916;-86
2023/01/17 17:06:05;;;;;;;;;;;1.60;1.00;;;;;;5013825;28;19909;-88
2023/01/17 17:14:58;;;;;;;;;;;1.50;1.00;;;;;;5025528;28;19920;-82
2023/01/17 17:17:24;;;;;;;;;;;1.40;1.00;;;;;;5016024;28;20015;-88
2023/01/17 17:19:53;;;;;;;;;;;1.40;1.00;;;;;;5015851;28;19948;-86
2023/01/17 17:25:21;;;;;;;;;;;1.30;1.00;;;;;;5030362;28;20355;-85
2023/01/17 17:31:06;;;;;;;;;;;1.20;1.00;;;;;;5022455;28;19935;-80
2023/01/17 17:33:35;;;;;;;;;;;1.20;1.00;;;;;;5021750;28;19984;-81
2023/01/17 17:42:18;;;;;;;;;;;1.10;1.00;;;;;;5037540;28;19916;-81
2023/01/17 17:44:47;;;;;;;;;;;1.10;1.00;;;;;;5019921;28;20287;-83
2023/01/17 17:47:17;;;;;;;;;;;1.00;1.00;;;;;;5020641;28;19976;-81
2023/01/17 17:49:47;;;;;;;;;;;1.00;1.00;;;;;;5022037;28;19914;-81
2023/01/17 17:52:17;;;;;;;;;;;1.00;1.00;;;;;;5013320;28;19913;-81
2023/01/17 17:54:59;;;;;;;;;;;1.00;1.00;;;;;;5028508;28;19916;-81
2023/01/17 17:57:29;;;;;;;;;;;0.90;1.00;;;;;;5019209;28;19913;-81
2023/01/17 18:00:29;;;;;;;;;;;0.90;1.00;;;;;;5036991;28;19924;-81
2023/01/17 18:06:05;;;;;;;;;;;0.90;1.00;;;;;;5032323;28;19924;-82
2023/01/17 18:08:41;;;;;;;;;;;0.90;1.00;;;;;;5036806;28;19916;-81
2023/01/17 18:11:41;;;;;;;;;;;0.90;1.00;;;;;;5037356;28;19996;-82
2023/01/17 18:17:09;;;;;;;;;;;0.90;1.00;;;;;;5035030;28;20024;-85
2023/01/17 18:25:42;;;;;;;;;;;0.90;1.00;;;;;;5034683;28;20006;-87
2023/01/17 18:28:08;;;;;;;;;;;0.90;1.00;;;;;;5018349;28;19919;-86
2023/01/17 18:36:33;;;;;;;;;;;0.90;1.00;;;;;;5035363;28;19960;-85
2023/01/17 18:38:59;;;;;;;;;;;0.90;1.00;;;;;;5008140;28;19917;-81
2023/01/17 18:41:59;;;;;;;;;;;0.90;1.00;;;;;;5013897;28;19952;-84
2023/01/17 18:44:41;;;;;;;;;;;0.90;1.00;;;;;;5011429;28;19956;-85
2023/01/17 18:47:23;;;;;;;;;;;0.90;1.00;;;;;;5008394;28;19913;-84
2023/01/17 18:50:23;;;;;;;;;;;0.90;1.00;;;;;;5034674;28;19913;-83
2023/01/17 18:53:05;;;;;;;;;;;0.90;1.00;;;;;;5005382;28;20008;-82
2023/01/17 18:55:41;;;;;;;;;;;0.90;1.00;;;;;;5028358;28;19913;-82
2023/01/17 18:58:35;;;;;;;;;;;1.00;1.00;;;;;;5027761;28;20368;-82
2023/01/17 19:01:12;;;;;;;;;;;1.00;1.00;;;;;;5034838;28;19924;-81
2023/01/17 19:03:39;;;;;;;;;;;1.00;1.00;;;;;;5014390;28;19913;-81
2023/01/17 19:06:06;;;;;;;;;;;1.00;1.00;;;;;;5031306;28;19972;-82
2023/01/17 19:08:35;;;;;;;;;;;1.00;1.00;;;;;;5035945;28;19909;-80
2023/01/17 19:11:03;;;;;;;;;;;1.00;1.00;;;;;;5021908;28;20414;-82
2023/01/17 19:13:41;;;;;;;;;;;1.10;1.00;;;;;;5036233;28;19916;-83
2023/01/17 19:16:12;;;;;;;;;;;1.00;1.00;;;;;;5028993;28;19963;-82
2023/01/17 19:18:41;;;;;;;;;;;1.00;1.00;;;;;;5024601;28;19917;-82
2023/01/17 19:21:12;;;;;;;;;;;1.10;1.00;;;;;;5013806;28;19914;-81
2023/01/17 19:23:38;;;;;;;;;;;1.10;1.00;;;;;;5020319;28;20288;-80
2023/01/17 19:26:12;;;;;;;;;;;1.10;1.00;;;;;;5015601;28;20000;-81
2023/01/17 19:28:39;;;;;;;;;;;1.10;1.00;;;;;;5015492;28;20284;-81
2023/01/17 19:31:09;;;;;;;;;;;1.10;1.00;;;;;;5033135;28;20016;-83
2023/01/17 19:33:36;;;;;;;;;;;1.10;1.00;;;;;;5036785;28;19928;-73
2023/01/17 19:36:07;;;;;;;;;;;1.10;1.00;;;;;;5033729;28;19945;-76
2023/01/17 19:38:36;;;;;;;;;;;1.00;1.00;;;;;;5032739;28;19917;-76
2023/01/17 19:41:22;;;;;;;;;;;1.10;1.00;;;;;;5035139;28;19920;-76
2023/01/17 19:43:52;;;;;;;;;;;1.10;1.00;;;;;;5029145;28;19933;-75
2023/01/17 19:46:25;;;;;;;;;;;1.00;1.00;;;;;;5030786;28;19948;-74
2023/01/17 19:48:53;;;;;;;;;;;1.10;1.00;;;;;;5008057;28;19917;-81
2023/01/17 19:51:53;;;;;;;;;;;1.10;1.00;;;;;;5038732;28;20276;-81
2023/01/17 19:54:23;;;;;;;;;;;1.10;1.00;;;;;;5019130;28;19913;-81
2023/01/17 19:57:05;;;;;;;;;;;1.00;1.00;;;;;;5008345;28;19967;-81
2023/01/17 19:59:41;;;;;;;;;;;1.10;1.00;;;;;;5034660;28;20307;-81
2023/01/17 20:02:11;;;;;;;;;;;1.00;1.00;;;;;;5034564;28;19963;-77
2023/01/17 20:07:47;;;;;;;;;;;1.00;1.00;;;;;;5034187;28;19920;-81
2023/01/17 20:10:35;;;;;;;;;;;1.00;1.00;;;;;;5034207;28;19909;-81
2023/01/17 20:19:07;;;;;;;;;;;1.10;1.00;;;;;;5033872;28;20698;-73
2023/01/17 20:21:33;;;;;;;;;;;1.10;1.00;;;;;;5032675;28;19913;-73
2023/01/17 20:24:01;;;;;;;;;;;1.20;1.00;;;;;;5032765;28;19921;-73
2023/01/17 20:26:33;;;;;;;;;;;1.20;1.00;;;;;;5033364;28;19944;-73
2023/01/17 20:28:59;;;;;;;;;;;1.20;1.00;;;;;;5016473;28;19963;-73
2023/01/17 20:31:50;;;;;;;;;;;1.20;1.00;;;;;;5004203;28;20304;-73